createdAt,value
2018-04-28T00:00:09.778Z,11.30
2018-04-28T00:00:43.092Z,11.40
2018-04-28T00:01:16.381Z,11.40
2018-04-28T00:01:49.851Z,11.40
2018-04-28T00:02:22.822Z,11.40
2018-04-28T00:02:55.806Z,11.40
2018-04-28T00:03:29.782Z,11.40
2018-04-28T00:04:03.514Z,11.40
2018-04-28T00:04:36.951Z,11.40
2018-04-28T00:05:10.156Z,11.40
2018-04-28T00:05:43.311Z,11.40
2018-04-28T00:06:16.662Z,11.40
2018-04-28T00:06:50.985Z,11.40
2018-04-28T00:07:24.298Z,11.40
2018-04-28T00:07:59.010Z,11.40
2018-04-28T00:08:33.179Z,11.40
2018-04-28T00:09:10.700Z,11.40
2018-04-28T00:09:43.870Z,11.40
2018-04-28T00:10:17.182Z,11.40
2018-04-28T00:10:50.746Z,11.40
2018-04-28T00:11:23.916Z,11.40
2018-04-28T00:11:58.916Z,11.40
2018-04-28T00:12:32.369Z,11.30
2018-04-28T00:13:06.363Z,11.40
2018-04-28T00:13:40.361Z,11.30
2018-04-28T00:14:13.799Z,11.30
2018-04-28T00:14:47.926Z,11.40
2018-04-28T00:15:22.247Z,11.30
2018-04-28T00:16:12.584Z,11.30
2018-04-28T00:16:48.006Z,11.30
2018-04-28T00:17:21.415Z,11.30
2018-04-28T00:17:55.182Z,11.30
2018-04-28T00:18:28.624Z,11.30
2018-04-28T00:19:03.701Z,11.30
2018-04-28T00:19:40.656Z,11.30
2018-04-28T00:20:14.245Z,11.30
2018-04-28T00:20:47.725Z,11.30
2018-04-28T00:21:21.712Z,11.30
2018-04-28T00:21:55.722Z,11.30
2018-04-28T00:22:46.238Z,11.30
2018-04-28T00:23:19.978Z,11.30
2018-04-28T00:23:54.306Z,11.20
2018-04-28T00:24:44.016Z,11.30
2018-04-28T00:25:20.983Z,11.20
2018-04-28T00:26:01.942Z,11.20
2018-04-28T00:26:39.167Z,11.20
2018-04-28T00:27:17.494Z,11.20
2018-04-28T00:28:09.045Z,11.20
2018-04-28T00:29:34.378Z,11.20
2018-04-28T00:30:20.453Z,11.20
2018-04-28T00:31:02.260Z,11.20
2018-04-28T00:31:37.302Z,11.20
2018-04-28T00:32:10.702Z,11.20
2018-04-28T00:32:44.229Z,11.20
2018-04-28T00:33:28.325Z,11.20
2018-04-28T00:34:03.261Z,11.20
2018-04-28T00:34:47.823Z,11.20
2018-04-28T00:35:26.896Z,11.20
2018-04-28T00:36:10.682Z,11.20
2018-04-28T00:37:08.334Z,11.20
2018-04-28T00:37:56.312Z,11.20
2018-04-28T00:38:30.410Z,11.20
2018-04-28T00:39:07.616Z,11.20
2018-04-28T00:39:56.568Z,11.20
2018-04-28T00:40:36.027Z,11.20
2018-04-28T00:41:09.726Z,11.20
2018-04-28T00:41:43.568Z,11.20
2018-04-28T00:42:16.904Z,11.20
2018-04-28T00:42:53.899Z,11.20
2018-04-28T00:43:31.314Z,11.20
2018-04-28T00:44:19.042Z,11.20
2018-04-28T00:44:52.410Z,11.20
2018-04-28T00:45:34.693Z,11.20
2018-04-28T00:46:09.868Z,11.20
2018-04-28T00:46:48.352Z,11.20
2018-04-28T00:47:24.061Z,11.20
2018-04-28T00:47:58.469Z,11.10
2018-04-28T00:48:38.946Z,11.10
2018-04-28T00:49:13.314Z,11.20
2018-04-28T00:50:54.262Z,11.20
2018-04-28T00:52:36.224Z,11.20
2018-04-28T00:53:10.403Z,11.20
2018-04-28T00:53:44.374Z,11.20
2018-04-28T00:54:29.330Z,11.20
2018-04-28T00:55:03.990Z,11.20
2018-04-28T00:55:37.692Z,11.20
2018-04-28T00:56:27.181Z,11.20
2018-04-28T00:57:01.492Z,11.20
2018-04-28T00:58:55.879Z,11.20
2018-04-28T00:59:30.386Z,11.20
2018-04-28T01:00:07.864Z,11.10
2018-04-28T01:01:44.904Z,11.10
2018-04-28T01:02:19.130Z,11.10
2018-04-28T01:02:56.292Z,11.10
2018-04-28T01:04:03.110Z,11.10
2018-04-28T01:04:42.480Z,11.10
2018-04-28T01:05:18.390Z,11.10
2018-04-28T01:05:52.330Z,11.00
2018-04-28T01:06:25.605Z,11.00
2018-04-28T01:06:59.400Z,11.00
2018-04-28T01:07:32.531Z,11.00
2018-04-28T01:08:06.888Z,11.00
2018-04-28T01:08:41.812Z,11.00
2018-04-28T01:09:16.632Z,11.00
2018-04-28T01:10:10.588Z,11.00
2018-04-28T01:11:01.085Z,11.00
2018-04-28T01:11:35.238Z,10.90
2018-04-28T01:12:09.645Z,10.90
2018-04-28T01:12:45.270Z,10.90
2018-04-28T01:13:19.212Z,10.90
2018-04-28T01:13:58.533Z,10.90
2018-04-28T01:14:42.813Z,10.90
2018-04-28T01:15:16.879Z,10.90
2018-04-28T01:15:50.354Z,10.90
2018-04-28T01:16:23.834Z,10.90
2018-04-28T01:16:57.322Z,10.90
2018-04-28T01:17:30.812Z,10.90
2018-04-28T01:18:08.915Z,10.80
2018-04-28T01:18:47.808Z,10.80
2018-04-28T01:19:24.973Z,10.80
2018-04-28T01:20:01.354Z,10.80
2018-04-28T01:20:50.874Z,10.80
2018-04-28T01:21:25.910Z,10.80
2018-04-28T01:22:02.880Z,10.80
2018-04-28T01:22:37.298Z,10.80
2018-04-28T01:23:10.838Z,10.80
2018-04-28T01:23:44.973Z,10.80
2018-04-28T01:24:24.510Z,10.80
2018-04-28T01:25:00.982Z,10.80
2018-04-28T01:25:50.955Z,10.80
2018-04-28T01:26:28.642Z,10.80
2018-04-28T01:27:17.056Z,10.80
2018-04-28T01:27:51.924Z,10.70
2018-04-28T01:28:31.219Z,10.70
2018-04-28T01:29:11.554Z,10.70
2018-04-28T01:29:55.049Z,10.70
2018-04-28T01:31:34.746Z,10.70
2018-04-28T01:32:13.204Z,10.70
2018-04-28T01:33:58.832Z,10.60
2018-04-28T01:34:33.293Z,10.60
2018-04-28T01:35:08.969Z,10.60
2018-04-28T01:35:44.222Z,10.60
2018-04-28T01:36:43.945Z,10.60
2018-04-28T01:38:27.256Z,10.60
2018-04-28T01:39:09.155Z,10.60
2018-04-28T01:39:54.720Z,10.60
2018-04-28T01:40:29.078Z,10.60
2018-04-28T01:41:24.929Z,10.50
2018-04-28T01:42:10.671Z,10.50
2018-04-28T01:43:52.877Z,10.50
2018-04-28T01:44:46.450Z,10.50
2018-04-28T01:45:41.229Z,10.50
2018-04-28T01:46:15.809Z,10.50
2018-04-28T01:46:53.638Z,10.40
2018-04-28T01:47:29.576Z,10.40
2018-04-28T01:48:25.890Z,10.40
2018-04-28T01:49:48.846Z,10.40
2018-04-28T01:50:23.834Z,10.30
2018-04-28T01:50:59.383Z,10.30
2018-04-28T01:51:42.932Z,10.30
2018-04-28T01:52:16.830Z,10.30
2018-04-28T01:52:51.303Z,10.30
2018-04-28T01:53:25.294Z,10.30
2018-04-28T01:54:16.898Z,10.30
2018-04-28T01:55:09.297Z,10.30
2018-04-28T01:55:55.101Z,10.30
2018-04-28T01:56:29.352Z,10.30
2018-04-28T01:57:08.452Z,10.30
2018-04-28T01:57:43.640Z,10.30
2018-04-28T01:58:18.237Z,10.20
2018-04-28T01:58:52.912Z,10.30
2018-04-28T01:59:30.377Z,10.20
2018-04-28T02:00:13.647Z,10.20
2018-04-28T02:01:04.175Z,10.20
2018-04-28T02:02:34.683Z,10.20
2018-04-28T02:04:25.400Z,10.10
2018-04-28T02:05:02.819Z,10.10
2018-04-28T02:05:44.473Z,10.10
2018-04-28T02:06:21.231Z,10.10
2018-04-28T02:07:00.720Z,10.10
2018-04-28T02:07:36.474Z,10.10
2018-04-28T02:08:22.548Z,10.00
2018-04-28T02:09:01.541Z,10.00
2018-04-28T02:09:36.538Z,10.00
2018-04-28T02:10:09.630Z,10.00
2018-04-28T02:10:49.398Z,10.00
2018-04-28T02:11:28.962Z,10.00
2018-04-28T02:12:25.883Z,9.90
2018-04-28T02:13:03.729Z,10.00
2018-04-28T02:13:42.476Z,9.90
2018-04-28T02:14:26.672Z,9.90
2018-04-28T02:15:08.924Z,9.90
2018-04-28T02:15:50.511Z,9.90
2018-04-28T02:16:28.144Z,9.90
2018-04-28T02:17:18.826Z,9.90
2018-04-28T02:19:08.547Z,9.90
2018-04-28T02:19:43.029Z,9.90
2018-04-28T02:21:29.348Z,9.90
2018-04-28T02:22:12.159Z,9.80
2018-04-28T02:23:08.113Z,9.80
2018-04-28T02:24:44.069Z,9.80
2018-04-28T02:25:38.701Z,9.80
2018-04-28T02:27:07.546Z,9.80
2018-04-28T02:27:46.038Z,9.80
2018-04-28T02:28:19.871Z,9.80
2018-04-28T02:29:00.774Z,9.80
2018-04-28T02:29:35.665Z,9.80
2018-04-28T02:30:10.383Z,9.80
2018-04-28T02:31:47.395Z,9.80
2018-04-28T02:32:22.840Z,9.80
2018-04-28T02:32:58.523Z,9.80
2018-04-28T02:33:32.476Z,9.80
2018-04-28T02:34:13.233Z,9.80
2018-04-28T02:34:58.089Z,9.80
2018-04-28T02:35:48.605Z,9.80
2018-04-28T02:37:27.671Z,9.80
2018-04-28T02:38:02.228Z,9.80
2018-04-28T02:38:51.002Z,9.70
2018-04-28T02:39:24.833Z,9.80
2018-04-28T02:40:05.265Z,9.80
2018-04-28T02:40:40.603Z,9.70
2018-04-28T02:41:15.102Z,9.70
2018-04-28T02:41:53.273Z,9.70
2018-04-28T02:42:39.103Z,9.70
2018-04-28T02:43:12.201Z,9.70
2018-04-28T02:44:00.159Z,9.70
2018-04-28T02:45:27.099Z,9.70
2018-04-28T02:46:01.650Z,9.70
2018-04-28T02:46:39.359Z,9.70
2018-04-28T02:47:19.895Z,9.70
2018-04-28T02:48:10.219Z,9.70
2018-04-28T02:48:58.142Z,9.80
2018-04-28T02:49:49.441Z,9.80
2018-04-28T02:50:23.407Z,9.70
2018-04-28T02:51:06.473Z,9.70
2018-04-28T02:52:03.803Z,9.70
2018-04-28T02:53:37.938Z,9.70
2018-04-28T02:54:32.559Z,9.70
2018-04-28T02:55:11.374Z,9.70
2018-04-28T02:55:54.343Z,9.70
2018-04-28T02:56:31.273Z,9.70
2018-04-28T02:57:12.681Z,9.70
2018-04-28T02:57:54.461Z,9.70
2018-04-28T02:58:39.203Z,9.70
2018-04-28T02:59:13.099Z,9.70
2018-04-28T02:59:47.074Z,9.70
2018-04-28T03:00:39.826Z,9.60
2018-04-28T03:01:27.830Z,9.60
2018-04-28T03:03:08.396Z,9.60
2018-04-28T03:03:48.925Z,9.60
2018-04-28T03:04:22.949Z,9.60
2018-04-28T03:04:57.220Z,9.60
2018-04-28T03:05:31.875Z,9.60
2018-04-28T03:06:04.955Z,9.60
2018-04-28T03:07:11.601Z,9.60
2018-04-28T03:08:40.123Z,9.50
2018-04-28T03:09:12.959Z,9.50
2018-04-28T03:09:46.108Z,9.50
2018-04-28T03:10:23.161Z,9.50
2018-04-28T03:10:58.705Z,9.50
2018-04-28T03:11:35.201Z,9.50
2018-04-28T03:12:09.156Z,9.50
2018-04-28T03:12:42.223Z,9.50
2018-04-28T03:13:16.773Z,9.50
2018-04-28T03:13:51.592Z,9.50
2018-04-28T03:14:24.413Z,9.50
2018-04-28T03:14:57.469Z,9.50
2018-04-28T03:15:30.545Z,9.50
2018-04-28T03:16:09.402Z,9.50
2018-04-28T03:16:43.960Z,9.50
2018-04-28T03:17:27.761Z,9.40
2018-04-28T03:18:00.830Z,9.50
2018-04-28T03:18:48.775Z,9.40
2018-04-28T03:19:21.849Z,9.40
2018-04-28T03:19:55.781Z,9.40
2018-04-28T03:20:30.527Z,9.40
2018-04-28T03:21:20.016Z,9.40
2018-04-28T03:21:54.885Z,9.40
2018-04-28T03:22:29.839Z,9.40
2018-04-28T03:23:04.324Z,9.40
2018-04-28T03:23:38.156Z,9.40
2018-04-28T03:25:36.277Z,9.30
2018-04-28T03:26:15.775Z,9.30
2018-04-28T03:26:55.441Z,9.30
2018-04-28T03:27:31.103Z,9.30
2018-04-28T03:28:39.724Z,9.30
2018-04-28T03:29:12.783Z,9.30
2018-04-28T03:29:54.851Z,9.20
2018-04-28T03:30:32.309Z,9.20
2018-04-28T03:32:07.417Z,9.20
2018-04-28T03:32:42.277Z,9.20
2018-04-28T03:33:29.566Z,9.20
2018-04-28T03:34:23.337Z,9.20
2018-04-28T03:34:56.415Z,9.20
2018-04-28T03:35:49.345Z,9.20
2018-04-28T03:36:23.253Z,9.20
2018-04-28T03:37:05.987Z,9.10
2018-04-28T03:37:41.531Z,9.10
2018-04-28T03:38:35.313Z,9.10
2018-04-28T03:39:57.822Z,9.10
2018-04-28T03:40:36.307Z,9.10
2018-04-28T03:41:24.283Z,9.10
2018-04-28T03:41:57.358Z,9.10
2018-04-28T03:42:36.293Z,9.10
2018-04-28T03:43:30.806Z,9.10
2018-04-28T03:44:07.253Z,9.10
2018-04-28T03:44:51.951Z,9.10
2018-04-28T03:45:27.897Z,9.10
2018-04-28T03:46:33.533Z,9.10
2018-04-28T03:48:26.281Z,9.10
2018-04-28T03:49:00.993Z,9.10
2018-04-28T03:49:34.326Z,9.10
2018-04-28T03:50:08.220Z,9.10
2018-04-28T03:50:50.740Z,9.10
2018-04-28T03:51:24.364Z,9.20
2018-04-28T03:52:00.263Z,9.20
2018-04-28T03:52:52.022Z,9.20
2018-04-28T03:53:29.717Z,9.20
2018-04-28T03:54:05.656Z,9.20
2018-04-28T03:54:38.721Z,9.20
2018-04-28T03:55:11.772Z,9.30
2018-04-28T03:55:44.843Z,9.30
2018-04-28T03:56:17.909Z,9.30
2018-04-28T03:56:53.836Z,9.30
2018-04-28T03:57:38.753Z,9.30
2018-04-28T03:58:23.796Z,9.40
2018-04-28T03:59:08.660Z,9.40
2018-04-28T03:59:53.553Z,9.40
2018-04-28T04:00:38.439Z,9.50
2018-04-28T04:01:23.390Z,9.50
2018-04-28T04:02:08.374Z,9.50
2018-04-28T04:03:06.270Z,9.50
2018-04-28T04:03:51.378Z,9.50
2018-04-28T04:05:28.561Z,9.50
2018-04-28T04:06:02.397Z,9.50
2018-04-28T04:06:47.287Z,9.50
2018-04-28T04:07:28.963Z,9.50
2018-04-28T04:08:19.602Z,9.50
2018-04-28T04:08:53.447Z,9.50
2018-04-28T04:09:37.256Z,9.50
2018-04-28T04:11:30.487Z,9.50
2018-04-28T04:12:05.343Z,9.50
2018-04-28T04:12:45.061Z,9.50
2018-04-28T04:13:30.193Z,9.50
2018-04-28T04:14:10.067Z,9.50
2018-04-28T04:14:49.856Z,9.50
2018-04-28T04:15:40.315Z,9.60
2018-04-28T04:16:32.891Z,9.60
2018-04-28T04:17:08.377Z,9.60
2018-04-28T04:17:51.814Z,9.60
2018-04-28T04:18:36.579Z,9.60
2018-04-28T04:19:11.275Z,9.60
2018-04-28T04:20:20.588Z,9.70
2018-04-28T04:21:12.128Z,9.70
2018-04-28T04:21:51.744Z,9.70
2018-04-28T04:22:47.294Z,9.70
2018-04-28T04:23:27.183Z,9.70
2018-04-28T04:24:20.886Z,9.80
2018-04-28T04:25:09.913Z,9.80
2018-04-28T04:26:00.316Z,9.80
2018-04-28T04:26:55.069Z,9.80
2018-04-28T04:28:47.363Z,9.70
2018-04-28T04:29:42.800Z,9.70
2018-04-28T04:30:39.416Z,9.70
2018-04-28T04:32:39.490Z,9.80
2018-04-28T04:33:28.339Z,9.80
2018-04-28T04:35:08.101Z,9.80
2018-04-28T04:35:48.623Z,9.90
2018-04-28T04:36:47.400Z,9.90
2018-04-28T04:37:24.265Z,10.00
2018-04-28T04:39:27.481Z,10.60
2018-04-28T04:40:22.698Z,10.80
2018-04-28T04:41:07.861Z,10.80
2018-04-28T04:42:35.206Z,11.40
2018-04-28T04:43:23.738Z,11.40
2018-04-28T04:44:10.575Z,11.50
2018-04-28T04:44:45.140Z,11.70
2018-04-28T04:45:34.873Z,11.80
2018-04-28T04:46:18.489Z,12.00
2018-04-28T04:48:04.745Z,12.40
2018-04-28T04:48:41.281Z,12.40
2018-04-28T04:49:23.068Z,12.60
2018-04-28T04:50:24.438Z,12.70
2018-04-28T04:51:03.665Z,12.80
2018-04-28T04:51:42.207Z,13.00
2018-04-28T04:52:26.408Z,13.00
2018-04-28T04:53:16.697Z,13.10
2018-04-28T04:53:58.127Z,13.10
2018-04-28T04:54:33.357Z,13.20
2018-04-28T04:55:14.869Z,13.20
2018-04-28T04:57:13.990Z,13.40
2018-04-28T04:58:50.471Z,13.60
2018-04-28T04:59:27.966Z,13.60
2018-04-28T05:00:07.528Z,13.70
2018-04-28T05:00:53.931Z,13.80
2018-04-28T05:01:27.686Z,13.80
2018-04-28T05:02:05.077Z,13.90
2018-04-28T05:02:51.163Z,14.00
2018-04-28T05:03:31.465Z,14.00
2018-04-28T05:04:08.999Z,14.00
2018-04-28T05:04:51.579Z,14.00
2018-04-28T05:05:29.573Z,14.10
2018-04-28T05:06:08.919Z,14.20
2018-04-28T05:06:53.758Z,14.20
2018-04-28T05:07:27.387Z,14.30
2018-04-28T05:08:12.013Z,14.30
2018-04-28T05:08:50.737Z,14.40
2018-04-28T05:11:03.555Z,14.60
2018-04-28T05:11:51.013Z,14.60
2018-04-28T05:12:27.270Z,14.80
2018-04-28T05:13:25.520Z,14.70
2018-04-28T05:14:00.920Z,14.80
2018-04-28T05:14:59.443Z,14.80
2018-04-28T05:15:54.464Z,14.90
2018-04-28T05:16:32.760Z,14.90
2018-04-28T05:17:10.171Z,15.00
2018-04-28T05:18:07.553Z,15.10
2018-04-28T05:18:52.057Z,15.00
2018-04-28T05:19:33.829Z,15.10
2018-04-28T05:20:31.281Z,15.20
2018-04-28T05:21:16.031Z,15.20
2018-04-28T05:21:52.383Z,15.30
2018-04-28T05:22:33.779Z,15.40
2018-04-28T05:23:11.893Z,15.40
2018-04-28T05:23:52.402Z,15.40
2018-04-28T05:24:37.131Z,15.50
2018-04-28T05:25:26.731Z,15.50
2018-04-28T05:26:54.099Z,15.50
2018-04-28T05:27:42.202Z,15.50
2018-04-28T05:28:27.111Z,15.60
2018-04-28T05:29:11.471Z,15.60
2018-04-28T05:29:49.773Z,15.60
2018-04-28T05:30:50.955Z,15.60
2018-04-28T05:31:32.979Z,15.60
2018-04-28T05:32:17.797Z,15.60
2018-04-28T05:33:00.354Z,15.60
2018-04-28T05:33:37.479Z,15.70
2018-04-28T05:34:21.945Z,15.60
2018-04-28T05:35:30.537Z,15.70
2018-04-28T05:36:08.853Z,15.70
2018-04-28T05:37:03.001Z,15.90
2018-04-28T05:37:41.807Z,15.90
2018-04-28T05:38:38.045Z,16.00
2018-04-28T05:40:15.677Z,16.10
2018-04-28T05:41:00.695Z,16.10
2018-04-28T05:41:42.129Z,16.10
2018-04-28T05:42:26.965Z,16.10
2018-04-28T05:43:09.279Z,16.10
2018-04-28T05:43:52.909Z,16.10
2018-04-28T05:44:29.079Z,16.10
2018-04-28T05:45:23.559Z,16.10
2018-04-28T05:47:08.481Z,16.20
2018-04-28T05:48:06.255Z,16.10
2018-04-28T05:50:22.424Z,16.20
2018-04-28T05:51:07.234Z,16.20
2018-04-28T05:51:47.876Z,16.20
2018-04-28T05:52:27.482Z,16.20
2018-04-28T05:53:07.153Z,16.20
2018-04-28T05:54:02.627Z,16.20
2018-04-28T05:54:52.730Z,16.10
2018-04-28T05:55:30.310Z,16.20
2018-04-28T05:56:06.739Z,16.10
2018-04-28T05:58:19.444Z,16.00
2018-04-28T05:58:58.998Z,16.10
2018-04-28T05:59:43.582Z,16.10
2018-04-28T06:01:51.098Z,16.00
2018-04-28T06:03:45.518Z,15.90
2018-04-28T06:04:30.278Z,15.90
2018-04-28T06:05:30.514Z,15.90
2018-04-28T06:07:11.233Z,15.80
2018-04-28T06:08:09.750Z,15.80
2018-04-28T06:10:06.702Z,15.70
2018-04-28T06:10:51.412Z,15.70
2018-04-28T06:11:37.042Z,15.50
2018-04-28T06:12:25.480Z,15.50
2018-04-28T06:13:07.178Z,15.50
2018-04-28T06:13:52.084Z,15.30
2018-04-28T06:14:34.527Z,15.30
2018-04-28T06:15:07.316Z,15.30
2018-04-28T06:15:48.476Z,15.10
2018-04-28T06:16:37.090Z,15.00
2018-04-28T06:17:15.748Z,15.00
2018-04-28T06:18:09.203Z,14.90
2018-04-28T06:20:12.501Z,14.70
2018-04-28T06:20:47.740Z,14.50
2018-04-28T06:21:21.206Z,14.60
2018-04-28T06:21:54.709Z,14.50
2018-04-28T06:22:27.834Z,14.50
2018-04-28T06:23:00.963Z,14.50
2018-04-28T06:23:34.444Z,14.40
2018-04-28T06:24:07.900Z,14.40
2018-04-28T06:24:42.122Z,14.30
2018-04-28T06:25:14.926Z,14.30
2018-04-28T06:25:47.767Z,14.30
2018-04-28T06:26:20.546Z,14.30
2018-04-28T06:26:53.377Z,14.30
2018-04-28T06:27:26.941Z,14.30
2018-04-28T06:27:59.756Z,14.20
2018-04-28T06:28:32.570Z,14.20
2018-04-28T06:29:05.361Z,14.20
2018-04-28T06:29:38.955Z,14.20
2018-04-28T06:30:12.517Z,14.20
2018-04-28T06:30:46.808Z,14.10
2018-04-28T06:31:19.632Z,14.10
2018-04-28T06:31:52.418Z,14.10
2018-04-28T06:32:25.226Z,14.20
2018-04-28T06:32:58.016Z,14.10
2018-04-28T06:33:30.825Z,14.20
2018-04-28T06:34:03.626Z,14.20
2018-04-28T06:34:36.416Z,14.10
2018-04-28T06:35:10.134Z,14.20
2018-04-28T06:35:42.977Z,14.10
2018-04-28T06:36:15.706Z,14.20
2018-04-28T06:36:48.508Z,14.20
2018-04-28T06:37:21.338Z,14.20
2018-04-28T06:37:54.159Z,14.20
2018-04-28T06:38:27.724Z,14.20
2018-04-28T06:39:00.532Z,14.20
2018-04-28T06:39:33.322Z,14.20
2018-04-28T06:40:06.108Z,14.20
2018-04-28T06:40:38.916Z,14.20
2018-04-28T06:41:11.812Z,14.10
2018-04-28T06:41:44.755Z,14.20
2018-04-28T06:42:17.549Z,14.20
2018-04-28T06:42:51.164Z,14.20
2018-04-28T06:43:24.648Z,14.20
2018-04-28T06:43:58.490Z,14.20
2018-04-28T06:44:32.792Z,14.20
2018-04-28T06:45:07.037Z,14.20
2018-04-28T06:45:39.852Z,14.30
2018-04-28T06:46:12.662Z,14.30
2018-04-28T06:46:46.234Z,14.30
2018-04-28T06:47:19.848Z,14.30
2018-04-28T06:47:52.679Z,14.30
2018-04-28T06:48:25.500Z,14.30
2018-04-28T06:48:58.301Z,14.30
2018-04-28T06:49:31.116Z,14.30
2018-04-28T06:50:03.914Z,14.30
2018-04-28T06:50:36.752Z,14.30
2018-04-28T06:51:11.056Z,14.30
2018-04-28T06:51:44.674Z,14.30
2018-04-28T06:52:17.795Z,14.40
2018-04-28T06:52:51.262Z,14.30
2018-04-28T06:53:24.757Z,14.40
2018-04-28T06:53:58.248Z,14.30
2018-04-28T06:54:31.704Z,14.40
2018-04-28T06:55:04.840Z,14.40
2018-04-28T06:55:38.398Z,14.40
2018-04-28T06:56:11.222Z,14.40
2018-04-28T06:56:44.032Z,14.40
2018-04-28T06:57:16.835Z,14.50
2018-04-28T06:57:49.639Z,14.50
2018-04-28T06:58:22.546Z,14.50
2018-04-28T06:58:55.351Z,14.50
2018-04-28T06:59:28.483Z,14.50
2018-04-28T07:00:01.332Z,14.50
2018-04-28T07:00:34.155Z,14.50
2018-04-28T07:01:07.717Z,14.60
2018-04-28T07:01:40.595Z,14.50
2018-04-28T07:02:14.178Z,14.60
2018-04-28T07:02:47.754Z,14.60
2018-04-28T07:03:20.544Z,14.60
2018-04-28T07:03:53.343Z,14.60
2018-04-28T07:04:26.145Z,14.60
2018-04-28T07:04:58.974Z,14.60
2018-04-28T07:05:31.759Z,14.60
2018-04-28T07:06:04.547Z,14.70
2018-04-28T07:06:37.363Z,14.60
2018-04-28T07:07:10.914Z,14.70
2018-04-28T07:07:43.704Z,14.70
2018-04-28T07:08:16.516Z,14.70
2018-04-28T07:08:50.032Z,14.70
2018-04-28T07:09:23.502Z,14.80
2018-04-28T07:09:56.994Z,14.80
2018-04-28T07:10:29.816Z,14.80
2018-04-28T07:11:03.379Z,14.80
2018-04-28T07:11:36.162Z,14.80
2018-04-28T07:12:09.728Z,14.80
2018-04-28T07:12:42.516Z,14.80
2018-04-28T07:13:15.298Z,14.90
2018-04-28T07:13:48.848Z,14.90
2018-04-28T07:14:21.726Z,14.90
2018-04-28T07:14:54.692Z,14.90
2018-04-28T07:15:27.474Z,14.90
2018-04-28T07:16:00.298Z,14.90
2018-04-28T07:16:33.084Z,14.90
2018-04-28T07:17:05.880Z,14.90
2018-04-28T07:17:38.682Z,14.90
2018-04-28T07:18:11.820Z,14.90
2018-04-28T07:18:44.939Z,14.90
2018-04-28T07:19:18.072Z,14.90
2018-04-28T07:19:50.886Z,14.90
2018-04-28T07:20:23.682Z,14.90
2018-04-28T07:20:56.544Z,15.00
2018-04-28T07:21:29.326Z,14.90
2018-04-28T07:22:02.112Z,15.00
2018-04-28T07:22:34.982Z,15.00
2018-04-28T07:23:07.772Z,15.00
2018-04-28T07:23:40.570Z,15.00
2018-04-28T07:24:13.362Z,15.00
2018-04-28T07:24:46.140Z,15.10
2018-04-28T07:25:18.963Z,15.10
2018-04-28T07:25:52.847Z,15.10
2018-04-28T07:26:26.742Z,15.10
2018-04-28T07:27:00.302Z,15.20
2018-04-28T07:27:33.092Z,15.20
2018-04-28T07:28:05.881Z,15.20
2018-04-28T07:28:39.443Z,15.30
2018-04-28T07:29:12.240Z,15.20
2018-04-28T07:29:46.014Z,15.30
2018-04-28T07:30:19.611Z,15.30
2018-04-28T07:30:53.182Z,15.30
2018-04-28T07:31:27.260Z,15.30
2018-04-28T07:32:00.052Z,15.30
2018-04-28T07:32:32.846Z,15.30
2018-04-28T07:33:05.642Z,15.40
2018-04-28T07:33:38.422Z,15.40
2018-04-28T07:34:11.230Z,15.40
2018-04-28T07:34:44.778Z,15.50
2018-04-28T07:35:17.600Z,15.50
2018-04-28T07:35:51.166Z,15.50
2018-04-28T07:36:24.706Z,15.50
2018-04-28T07:36:57.501Z,15.50
2018-04-28T07:37:30.288Z,15.60
2018-04-28T07:38:03.076Z,15.60
2018-04-28T07:38:36.709Z,15.60
2018-04-28T07:39:09.497Z,15.60
2018-04-28T07:39:42.286Z,15.70
2018-04-28T07:40:15.078Z,15.70
2018-04-28T07:40:48.650Z,15.70
2018-04-28T07:41:22.217Z,15.70
2018-04-28T07:41:55.015Z,15.70
2018-04-28T07:42:28.645Z,15.70
2018-04-28T07:43:01.429Z,15.70
2018-04-28T07:43:34.223Z,15.70
2018-04-28T07:44:07.057Z,15.80
2018-04-28T07:44:39.832Z,15.80
2018-04-28T07:45:12.615Z,15.80
2018-04-28T07:45:46.179Z,15.80
2018-04-28T07:46:18.994Z,15.80
2018-04-28T07:46:52.551Z,15.90
2018-04-28T07:47:25.339Z,15.90
2018-04-28T07:47:58.145Z,15.90
2018-04-28T07:48:30.959Z,15.90
2018-04-28T07:49:04.184Z,15.90
2018-04-28T07:49:37.749Z,16.00
2018-04-28T07:50:11.311Z,15.90
2018-04-28T07:50:44.102Z,16.00
2018-04-28T07:51:17.215Z,16.00
2018-04-28T07:51:50.039Z,16.00
2018-04-28T07:52:23.174Z,16.10
2018-04-28T07:52:56.648Z,16.10
2018-04-28T07:53:29.773Z,16.10
2018-04-28T07:54:02.941Z,16.10
2018-04-28T07:54:36.281Z,16.10
2018-04-28T07:55:09.729Z,16.20
2018-04-28T07:55:42.528Z,16.20
2018-04-28T07:56:15.317Z,16.20
2018-04-28T07:56:48.773Z,16.30
2018-04-28T07:57:22.255Z,16.30
2018-04-28T07:57:56.489Z,16.40
2018-04-28T07:58:29.945Z,16.40
2018-04-28T07:59:04.163Z,16.40
2018-04-28T07:59:37.615Z,16.40
2018-04-28T08:00:11.273Z,16.50
2018-04-28T08:00:44.381Z,16.50
2018-04-28T08:01:17.962Z,16.50
2018-04-28T08:01:50.773Z,16.50
2018-04-28T08:02:23.627Z,16.50
2018-04-28T08:02:57.179Z,16.50
2018-04-28T08:03:30.010Z,16.50
2018-04-28T08:04:02.795Z,16.50
2018-04-28T08:04:35.583Z,16.50
2018-04-28T08:05:08.445Z,16.60
2018-04-28T08:05:41.305Z,16.60
2018-04-28T08:06:14.101Z,16.60
2018-04-28T08:06:48.755Z,16.60
2018-04-28T08:07:21.556Z,16.60
2018-04-28T08:07:54.375Z,16.60
2018-04-28T08:08:27.933Z,16.70
2018-04-28T08:09:00.730Z,16.70
2018-04-28T08:09:34.290Z,16.80
2018-04-28T08:10:06.860Z,16.70
2018-04-28T08:10:39.651Z,16.80
2018-04-28T08:11:13.206Z,16.80
2018-04-28T08:11:45.993Z,16.80
2018-04-28T08:12:19.563Z,16.80
2018-04-28T08:12:52.391Z,16.80
2018-04-28T08:13:25.259Z,16.90
2018-04-28T08:13:58.069Z,16.90
2018-04-28T08:14:30.863Z,16.90
2018-04-28T08:15:04.413Z,16.90
2018-04-28T08:15:37.197Z,16.90
2018-04-28T08:16:09.991Z,16.90
2018-04-28T08:16:43.575Z,16.90
2018-04-28T08:17:17.137Z,17.00
2018-04-28T08:17:49.929Z,16.90
2018-04-28T08:18:23.513Z,17.00
2018-04-28T08:18:56.306Z,17.00
2018-04-28T08:19:29.095Z,17.10
2018-04-28T08:20:01.889Z,17.10
2018-04-28T08:20:34.696Z,17.10
2018-04-28T08:21:08.260Z,17.20
2018-04-28T08:21:40.835Z,17.10
2018-04-28T08:22:13.618Z,17.20
2018-04-28T08:22:47.176Z,17.20
2018-04-28T08:23:19.971Z,17.20
2018-04-28T08:23:53.551Z,17.30
2018-04-28T08:24:27.118Z,17.30
2018-04-28T08:24:59.913Z,17.30
2018-04-28T08:25:33.461Z,17.30
2018-04-28T08:26:06.261Z,17.30
2018-04-28T08:26:39.820Z,17.40
2018-04-28T08:27:12.609Z,17.40
2018-04-28T08:27:45.403Z,17.40
2018-04-28T08:28:18.952Z,17.40
2018-04-28T08:28:51.739Z,17.40
2018-04-28T08:29:25.109Z,17.50
2018-04-28T08:29:57.671Z,17.50
2018-04-28T08:30:30.753Z,17.50
2018-04-28T08:31:03.539Z,17.50
2018-04-28T08:31:37.103Z,17.60
2018-04-28T08:32:09.917Z,17.60
2018-04-28T08:32:42.703Z,17.60
2018-04-28T08:33:15.501Z,17.60
2018-04-28T08:33:48.297Z,17.60
2018-04-28T08:34:21.895Z,17.70
2018-04-28T08:34:55.491Z,17.70
2018-04-28T08:35:28.273Z,17.70
2018-04-28T08:36:01.061Z,17.70
2018-04-28T08:36:33.629Z,17.70
2018-04-28T08:37:06.251Z,17.70
2018-04-28T08:37:39.369Z,17.70
2018-04-28T08:38:12.241Z,17.70
2018-04-28T08:38:44.835Z,17.70
2018-04-28T08:39:18.742Z,17.70
2018-04-28T08:39:52.326Z,17.70
2018-04-28T08:40:25.915Z,17.80
2018-04-28T08:40:59.241Z,17.80
2018-04-28T08:41:31.822Z,17.70
2018-04-28T08:42:04.965Z,17.80
2018-04-28T08:42:37.853Z,17.80
2018-04-28T08:43:10.641Z,17.80
2018-04-28T08:43:43.419Z,17.80
2018-04-28T08:44:16.209Z,17.80
2018-04-28T08:44:48.787Z,17.90
2018-04-28T08:45:22.107Z,17.90
2018-04-28T08:45:55.595Z,17.90
2018-04-28T08:46:29.056Z,17.90
2018-04-28T08:47:02.513Z,17.90
2018-04-28T08:47:36.745Z,18.00
2018-04-28T08:48:09.301Z,18.00
2018-04-28T08:48:42.087Z,18.00
2018-04-28T08:49:15.547Z,18.00
2018-04-28T08:49:49.469Z,18.00
2018-04-28T08:50:22.283Z,18.00
2018-04-28T08:50:55.395Z,18.00
2018-04-28T08:51:28.522Z,18.00
2018-04-28T08:52:01.080Z,18.00
2018-04-28T08:52:34.195Z,18.00
2018-04-28T08:53:07.754Z,18.10
2018-04-28T08:53:40.561Z,18.00
2018-04-28T08:54:13.894Z,18.10
2018-04-28T08:54:46.703Z,18.10
2018-04-28T08:55:20.637Z,18.10
2018-04-28T08:55:53.763Z,18.10
2018-04-28T08:56:27.327Z,18.10
2018-04-28T08:57:00.474Z,18.10
2018-04-28T08:57:33.620Z,18.20
2018-04-28T08:58:07.187Z,18.20
2018-04-28T08:58:39.974Z,18.10
2018-04-28T08:59:13.549Z,18.20
2018-04-28T08:59:58.172Z,18.20
2018-04-28T09:00:31.667Z,18.30
2018-04-28T09:01:04.450Z,18.30
2018-04-28T09:01:38.677Z,18.40
2018-04-28T09:02:12.133Z,18.30
2018-04-28T09:02:45.606Z,18.40
2018-04-28T09:03:19.061Z,18.40